Terminal Aerodrome Forecast
Issued by NWS St Louis, MO

Home | Current Version | Previous Version | Text Only | Print | Product List | Glossary On
Versions: 1 2 3 4 5 6 7 8 9 10 11 12 13 14 15 16 17 18 19
000
FTUS43 KLSX 211700
TAFCOU
TAF
KCOU 211729Z 2118/2218 24010KT P6SM VCTS BKN030CB
      TEMPO 2120/2122 2SM TSRA OVC015CB
     FM212200 26010KT 6SM -SHRA VCTS OVC030CB
      TEMPO 2122/2202 3SM SHRA OVC015
     FM220200 32010KT P6SM BKN040
     FM220500 33011KT P6SM SKC=

USA.gov is the U.S. government's official web portal to all federal, state and local government web resources and services.